createdAt,value
2023-04-21T00:00:48.618Z,1017.00
2023-04-21T00:01:49.005Z,1017.04
2023-04-21T00:02:49.319Z,1016.98
2023-04-21T00:03:49.666Z,1017.06
2023-04-21T00:04:50.061Z,1017.01
2023-04-21T00:05:50.029Z,1017.03
2023-04-21T00:06:54.319Z,1017.02
2023-04-21T00:07:50.541Z,1017.02
2023-04-21T00:08:50.895Z,1017.01
2023-04-21T00:09:51.122Z,1016.96
2023-04-21T00:10:51.409Z,1016.97
2023-04-21T00:11:51.753Z,1016.96
2023-04-21T00:12:52.073Z,1016.98
2023-04-21T00:13:52.417Z,1016.96
2023-04-21T00:14:52.753Z,1017.01
2023-04-21T00:15:53.121Z,1017.03
2023-04-21T00:16:53.415Z,1016.98
2023-04-21T00:17:53.765Z,1016.95
2023-04-21T00:18:54.154Z,1017.02
2023-04-21T00:19:54.401Z,1017.01
2023-04-21T00:20:54.606Z,1016.98
2023-04-21T00:21:54.936Z,1016.96
2023-04-21T00:22:55.270Z,1016.93
2023-04-21T00:23:55.621Z,1016.94
2023-04-21T00:24:55.816Z,1016.89
2023-04-21T00:25:56.170Z,1016.91
2023-04-21T00:26:56.537Z,1016.89
2023-04-21T00:27:56.749Z,1016.94
2023-04-21T00:28:57.085Z,1016.92
2023-04-21T00:29:57.424Z,1016.90
2023-04-21T00:30:57.786Z,1016.93
2023-04-21T00:31:58.157Z,1016.94
2023-04-21T00:32:58.443Z,1016.94
2023-04-21T00:33:58.695Z,1016.86
2023-04-21T00:34:58.957Z,1016.93
2023-04-21T00:35:59.221Z,1016.88
2023-04-21T00:36:59.590Z,1016.94
2023-04-21T00:37:59.812Z,1016.89
2023-04-21T00:39:00.165Z,1016.94
2023-04-21T00:40:00.361Z,1016.92
2023-04-21T00:41:00.698Z,1016.88
2023-04-21T00:42:00.935Z,1016.89
2023-04-21T00:43:01.249Z,1016.87
2023-04-21T00:44:01.612Z,1016.89
2023-04-21T00:45:01.901Z,1016.94
2023-04-21T00:46:02.236Z,1016.95
2023-04-21T00:47:02.745Z,1016.93
2023-04-21T00:48:02.956Z,1016.94
2023-04-21T00:49:03.144Z,1016.95
2023-04-21T00:50:03.484Z,1016.90
2023-04-21T00:51:03.818Z,1016.94
2023-04-21T00:52:04.175Z,1016.94
2023-04-21T00:53:04.540Z,1016.93
2023-04-21T00:54:04.751Z,1016.92
2023-04-21T00:55:05.054Z,1016.89
2023-04-21T00:56:05.418Z,1016.94
2023-04-21T00:57:05.650Z,1016.91
2023-04-21T00:58:06.009Z,1016.90
2023-04-21T00:59:06.321Z,1016.92
2023-04-21T01:00:06.647Z,1016.90
2023-04-21T01:01:07.058Z,1016.89
2023-04-21T01:02:07.289Z,1016.94
2023-04-21T01:03:07.805Z,1016.91
2023-04-21T01:04:08.006Z,1016.92
2023-04-21T01:05:08.141Z,1016.95
2023-04-21T01:06:08.498Z,1016.94
2023-04-21T01:07:08.816Z,1016.92
2023-04-21T01:08:09.161Z,1016.98
2023-04-21T01:09:09.492Z,1016.91
2023-04-21T01:10:09.848Z,1016.95
2023-04-21T01:11:10.132Z,1016.96
2023-04-21T01:12:10.480Z,1016.94
2023-04-21T01:13:10.829Z,1016.95
2023-04-21T01:14:11.064Z,1016.98
2023-04-21T01:15:11.371Z,1016.99
2023-04-21T01:16:11.769Z,1016.97
2023-04-21T01:17:11.983Z,1016.96
2023-04-21T01:18:12.226Z,1016.94
2023-04-21T01:19:12.516Z,1016.93
2023-04-21T01:20:12.845Z,1016.99
2023-04-21T01:21:13.054Z,1016.98
2023-04-21T01:22:13.405Z,1016.92
2023-04-21T01:23:13.699Z,1016.93
2023-04-21T01:24:14.014Z,1016.97
2023-04-21T01:25:14.367Z,1016.97
2023-04-21T01:26:14.650Z,1016.97
2023-04-21T01:27:15.021Z,1016.99
2023-04-21T01:28:15.318Z,1017.02
2023-04-21T01:29:15.619Z,1016.94
2023-04-21T01:30:15.922Z,1016.92
2023-04-21T01:31:16.221Z,1016.95
2023-04-21T01:32:16.667Z,1016.91
2023-04-21T01:33:16.960Z,1016.92
2023-04-21T01:34:17.159Z,1016.99
2023-04-21T01:35:17.480Z,1016.93
2023-04-21T01:36:17.771Z,1016.91
2023-04-21T01:37:18.121Z,1016.99
2023-04-21T01:38:19.414Z,1016.93
2023-04-21T01:39:18.661Z,1016.97
2023-04-21T01:40:18.865Z,1016.89
2023-04-21T01:41:19.148Z,1016.88
2023-04-21T01:42:19.455Z,1016.93
2023-04-21T01:43:19.803Z,1016.88
2023-04-21T01:44:19.980Z,1016.94
2023-04-21T01:45:20.284Z,1016.86
2023-04-21T01:46:20.643Z,1016.89
2023-04-21T01:47:20.944Z,1016.90
2023-04-21T01:48:21.253Z,1016.83
2023-04-21T01:49:21.572Z,1016.88
2023-04-21T01:50:21.843Z,1016.95
2023-04-21T01:51:22.166Z,1016.89
2023-04-21T01:52:22.430Z,1016.87
2023-04-21T01:53:22.762Z,1016.89
2023-04-21T01:54:23.010Z,1016.91
2023-04-21T01:55:23.291Z,1016.91
2023-04-21T01:56:23.551Z,1016.86
2023-04-21T01:57:23.821Z,1016.90
2023-04-21T01:58:24.108Z,1016.89
2023-04-21T01:59:24.411Z,1016.84
2023-04-21T02:00:24.644Z,1016.89
2023-04-21T02:01:25.061Z,1016.92
2023-04-21T02:02:25.412Z,1016.82
2023-04-21T02:03:25.747Z,1016.86
2023-04-21T02:04:26.012Z,1016.89
2023-04-21T02:05:26.130Z,1016.94
2023-04-21T02:06:26.415Z,1016.92
2023-04-21T02:07:26.795Z,1016.91
2023-04-21T02:08:27.020Z,1016.87
2023-04-21T02:09:27.302Z,1016.92
2023-04-21T02:10:27.509Z,1016.85
2023-04-21T02:12:28.518Z,1016.89
2023-04-21T02:13:28.725Z,1016.83
2023-04-21T02:14:28.944Z,1016.83
2023-04-21T02:15:29.315Z,1016.86
2023-04-21T02:16:29.526Z,1016.89
2023-04-21T02:17:29.851Z,1016.90
2023-04-21T02:18:30.167Z,1016.84
2023-04-21T02:19:30.463Z,1016.85
2023-04-21T02:20:30.795Z,1016.83
2023-04-21T02:21:31.144Z,1016.86
2023-04-21T02:22:31.441Z,1016.87
2023-04-21T02:23:31.706Z,1016.82
2023-04-21T02:24:32.026Z,1016.89
2023-04-21T02:25:32.326Z,1016.88
2023-04-21T02:26:32.652Z,1016.86
2023-04-21T02:27:32.989Z,1016.91
2023-04-21T02:28:33.299Z,1016.82
2023-04-21T02:29:33.609Z,1016.80
2023-04-21T02:30:33.931Z,1016.89
2023-04-21T02:31:40.420Z,1016.85
2023-04-21T02:32:35.743Z,1016.84
2023-04-21T02:33:34.918Z,1016.88
2023-04-21T02:34:35.205Z,1016.86
2023-04-21T02:35:35.603Z,1016.84
2023-04-21T02:36:35.870Z,1016.84
2023-04-21T02:37:36.194Z,1016.87
2023-04-21T02:38:36.517Z,1016.81
2023-04-21T02:39:36.808Z,1016.81
2023-04-21T02:40:37.129Z,1016.85
2023-04-21T02:41:37.435Z,1016.92
2023-04-21T02:42:37.737Z,1016.88
2023-04-21T02:43:38.100Z,1016.91
2023-04-21T02:44:38.311Z,1016.89
2023-04-21T02:45:38.582Z,1016.87
2023-04-21T02:46:38.955Z,1016.82
2023-04-21T02:47:39.258Z,1016.87
2023-04-21T02:48:39.556Z,1016.82
2023-04-21T02:49:39.844Z,1016.82
2023-04-21T02:50:40.167Z,1016.90
2023-04-21T02:51:40.461Z,1016.86
2023-04-21T02:52:40.782Z,1016.87
2023-04-21T02:53:41.108Z,1016.90
2023-04-21T02:54:41.418Z,1016.83
2023-04-21T02:55:41.752Z,1016.81
2023-04-21T02:56:42.017Z,1016.85
2023-04-21T02:57:42.345Z,1016.80
2023-04-21T02:58:42.662Z,1016.83
2023-04-21T02:59:42.955Z,1016.76
2023-04-21T03:00:43.266Z,1016.84
2023-04-21T03:01:43.560Z,1016.81
2023-04-21T03:02:44.004Z,1016.81
2023-04-21T03:03:44.282Z,1016.83
2023-04-21T03:04:44.415Z,1016.89
2023-04-21T03:05:44.785Z,1016.83
2023-04-21T03:06:45.108Z,1016.85
2023-04-21T03:07:45.368Z,1016.80
2023-04-21T03:08:45.713Z,1016.80
2023-04-21T03:09:46.006Z,1016.82
2023-04-21T03:10:46.364Z,1016.86
2023-04-21T03:11:46.609Z,1016.81
2023-04-21T03:12:46.913Z,1016.76
2023-04-21T03:13:47.233Z,1016.68
2023-04-21T03:14:47.552Z,1016.81
2023-04-21T03:15:47.868Z,1016.68
2023-04-21T03:16:48.212Z,1016.78
2023-04-21T03:17:48.535Z,1016.70
2023-04-21T03:18:48.754Z,1016.70
2023-04-21T03:19:49.080Z,1016.68
2023-04-21T03:20:49.385Z,1016.76
2023-04-21T03:21:49.718Z,1016.68
2023-04-21T03:22:50.019Z,1016.71
2023-04-21T03:23:50.334Z,1016.75
2023-04-21T03:24:50.642Z,1016.74
2023-04-21T03:25:50.938Z,1016.75
2023-04-21T03:26:51.226Z,1016.71
2023-04-21T03:27:51.585Z,1016.68
2023-04-21T03:28:51.942Z,1016.68
2023-04-21T03:29:52.118Z,1016.71
2023-04-21T03:30:52.426Z,1016.64
2023-04-21T03:31:52.797Z,1016.67
2023-04-21T03:32:53.111Z,1016.72
2023-04-21T03:33:53.411Z,1016.73
2023-04-21T03:34:53.723Z,1016.74
2023-04-21T03:35:54.051Z,1016.73
2023-04-21T03:36:54.363Z,1016.74
2023-04-21T03:37:54.735Z,1016.72
2023-04-21T03:38:56.436Z,1016.77
2023-04-21T03:39:55.303Z,1016.82
2023-04-21T03:40:55.597Z,1016.75
2023-04-21T03:41:55.905Z,1016.71
2023-04-21T03:42:56.228Z,1016.82
2023-04-21T03:43:56.563Z,1016.78
2023-04-21T03:44:56.916Z,1016.76
2023-04-21T03:45:57.224Z,1016.77
2023-04-21T03:46:57.577Z,1016.75
2023-04-21T03:47:57.845Z,1016.71
2023-04-21T03:48:58.056Z,1016.72
2023-04-21T03:49:58.266Z,1016.72
2023-04-21T03:50:58.624Z,1016.73
2023-04-21T03:51:58.958Z,1016.74
2023-04-21T03:52:59.168Z,1016.71
2023-04-21T03:53:59.549Z,1016.73
2023-04-21T03:54:59.780Z,1016.73
2023-04-21T03:56:00.126Z,1016.76
2023-04-21T03:57:00.328Z,1016.69
2023-04-21T03:58:00.657Z,1016.72
2023-04-21T03:59:01.036Z,1016.72
2023-04-21T04:00:01.229Z,1016.71
2023-04-21T04:01:01.582Z,1016.71
2023-04-21T04:02:01.855Z,1016.70
2023-04-21T04:03:02.201Z,1016.77
2023-04-21T04:04:02.753Z,1016.75
2023-04-21T04:05:02.660Z,1016.74
2023-04-21T04:06:02.965Z,1016.68
2023-04-21T04:07:03.322Z,1016.73
2023-04-21T04:08:03.682Z,1016.73
2023-04-21T04:09:03.922Z,1016.73
2023-04-21T04:10:04.152Z,1016.76
2023-04-21T04:11:04.358Z,1016.75
2023-04-21T04:12:04.715Z,1016.75
2023-04-21T04:13:04.986Z,1016.73
2023-04-21T04:14:05.192Z,1016.75
2023-04-21T04:15:05.417Z,1016.75
2023-04-21T04:16:05.678Z,1016.76
2023-04-21T04:17:05.884Z,1016.72
2023-04-21T04:18:06.229Z,1016.74
2023-04-21T04:19:06.437Z,1016.72
2023-04-21T04:20:06.687Z,1016.70
2023-04-21T04:21:06.923Z,1016.68
2023-04-21T04:22:07.154Z,1016.76
2023-04-21T04:23:07.479Z,1016.76
2023-04-21T04:24:07.860Z,1016.72
2023-04-21T04:25:08.101Z,1016.79
2023-04-21T04:26:08.327Z,1016.74
2023-04-21T04:27:08.574Z,1016.76
2023-04-21T04:28:08.805Z,1016.78
2023-04-21T04:29:09.068Z,1016.76
2023-04-21T04:30:09.293Z,1016.82
2023-04-21T04:31:09.558Z,1016.80
2023-04-21T04:32:09.791Z,1016.85
2023-04-21T04:33:10.089Z,1016.79
2023-04-21T04:34:10.378Z,1016.76
2023-04-21T04:35:10.591Z,1016.76
2023-04-21T04:36:10.840Z,1016.74
2023-04-21T04:37:11.098Z,1016.79
2023-04-21T04:38:11.312Z,1016.75
2023-04-21T04:39:11.664Z,1016.71
2023-04-21T04:40:11.882Z,1016.67
2023-04-21T04:41:12.151Z,1016.74
2023-04-21T04:42:12.359Z,1016.73
2023-04-21T04:43:12.713Z,1016.74
2023-04-21T04:44:12.934Z,1016.74
2023-04-21T04:45:13.320Z,1016.74
2023-04-21T04:46:13.590Z,1016.80
2023-04-21T04:47:13.842Z,1016.82
2023-04-21T04:48:14.105Z,1016.76
2023-04-21T04:49:14.329Z,1016.88
2023-04-21T04:50:14.581Z,1016.74
2023-04-21T04:51:14.802Z,1016.81
2023-04-21T04:52:15.051Z,1016.79
2023-04-21T04:53:15.267Z,1016.79
2023-04-21T04:54:15.513Z,1016.79
2023-04-21T04:55:15.754Z,1016.81
2023-04-21T04:56:16.006Z,1016.77
2023-04-21T04:57:16.280Z,1016.82
2023-04-21T04:58:16.541Z,1016.79
2023-04-21T04:59:16.829Z,1016.81
2023-04-21T05:00:17.157Z,1016.82
2023-04-21T05:01:17.574Z,1016.76
2023-04-21T05:02:17.741Z,1016.81
2023-04-21T05:03:18.057Z,1016.76
2023-04-21T05:04:18.317Z,1016.79
2023-04-21T05:05:18.428Z,1016.78
2023-04-21T05:06:18.701Z,1016.81
2023-04-21T05:07:18.929Z,1016.85
2023-04-21T05:08:19.336Z,1016.84
2023-04-21T05:09:19.547Z,1016.82
2023-04-21T05:10:19.892Z,1016.76
2023-04-21T05:11:20.347Z,1016.81
2023-04-21T05:12:20.558Z,1016.78
2023-04-21T05:13:20.788Z,1016.81
2023-04-21T05:14:21.358Z,1016.84
2023-04-21T05:15:21.373Z,1016.78
2023-04-21T05:16:21.631Z,1016.82
2023-04-21T05:17:21.986Z,1016.82
2023-04-21T05:18:22.327Z,1016.69
2023-04-21T05:19:22.522Z,1016.77
2023-04-21T05:20:22.756Z,1016.79
2023-04-21T05:21:23.014Z,1016.75
2023-04-21T05:22:23.226Z,1016.75
2023-04-21T05:23:23.459Z,1016.78
2023-04-21T05:24:23.716Z,1016.72
2023-04-21T05:25:23.918Z,1016.70
2023-04-21T05:26:24.268Z,1016.69
2023-04-21T05:27:24.620Z,1016.76
2023-04-21T05:28:24.935Z,1016.68
2023-04-21T05:29:25.126Z,1016.71
2023-04-21T05:30:25.691Z,1016.68
2023-04-21T05:31:25.834Z,1016.63
2023-04-21T05:32:26.324Z,1016.65
2023-04-21T05:33:26.386Z,1016.60
2023-04-21T05:34:26.607Z,1016.64
2023-04-21T05:35:26.828Z,1016.65
2023-04-21T05:36:27.064Z,1016.66
2023-04-21T05:37:27.298Z,1016.69
2023-04-21T05:38:27.602Z,1016.58
2023-04-21T05:39:27.822Z,1016.61
2023-04-21T05:40:28.079Z,1016.74
2023-04-21T05:41:28.330Z,1016.65
2023-04-21T05:42:28.564Z,1016.63
2023-04-21T05:43:28.818Z,1016.63
2023-04-21T05:44:29.063Z,1016.71
2023-04-21T05:45:29.337Z,1016.66
2023-04-21T05:46:29.611Z,1016.71
2023-04-21T05:47:29.932Z,1016.62
2023-04-21T05:48:30.150Z,1016.71
2023-04-21T05:49:30.380Z,1016.71
2023-04-21T05:50:30.682Z,1016.61
2023-04-21T05:51:30.894Z,1016.68
2023-04-21T05:52:31.157Z,1016.65
2023-04-21T05:53:31.446Z,1016.70
2023-04-21T05:54:31.676Z,1016.68
2023-04-21T05:55:31.918Z,1016.69
2023-04-21T05:56:33.163Z,1016.65
2023-04-21T05:57:32.484Z,1016.61
2023-04-21T05:58:32.744Z,1016.67
2023-04-21T05:59:32.981Z,1016.64
2023-04-21T06:00:33.231Z,1016.61
2023-04-21T06:01:33.467Z,1016.56
2023-04-21T06:02:33.814Z,1016.54
2023-04-21T06:03:34.107Z,1016.51
2023-04-21T06:04:34.485Z,1016.54
2023-04-21T06:05:34.537Z,1016.51
2023-04-21T06:06:34.787Z,1016.52
2023-04-21T06:07:34.996Z,1016.51
2023-04-21T06:08:35.264Z,1016.48
2023-04-21T06:09:35.506Z,1016.51
2023-04-21T06:10:35.766Z,1016.51
2023-04-21T06:11:36.018Z,1016.54
2023-04-21T06:12:36.276Z,1016.49
2023-04-21T06:13:38.612Z,1016.43
2023-04-21T06:14:36.876Z,1016.41
2023-04-21T06:15:37.080Z,1016.42
2023-04-21T06:16:37.334Z,1016.45
2023-04-21T06:17:37.571Z,1016.43
2023-04-21T06:18:37.855Z,1016.39
2023-04-21T06:19:38.078Z,1016.39
2023-04-21T06:20:38.334Z,1016.45
2023-04-21T06:21:38.592Z,1016.44
2023-04-21T06:22:38.848Z,1016.47
2023-04-21T06:23:39.147Z,1016.43
2023-04-21T06:24:39.378Z,1016.39
2023-04-21T06:25:39.652Z,1016.43
2023-04-21T06:26:39.888Z,1016.37
2023-04-21T06:27:40.138Z,1016.43
2023-04-21T06:28:40.396Z,1016.38
2023-04-21T06:29:40.633Z,1016.38
2023-04-21T06:30:40.911Z,1016.33
2023-04-21T06:31:41.155Z,1016.38
2023-04-21T06:32:41.389Z,1016.33
2023-04-21T06:33:41.634Z,1016.33
2023-04-21T06:34:41.844Z,1016.39
2023-04-21T06:35:42.111Z,1016.34
2023-04-21T06:36:42.307Z,1016.32
2023-04-21T06:37:42.593Z,1016.40
2023-04-21T06:38:42.803Z,1016.39
2023-04-21T06:39:43.055Z,1016.35
2023-04-21T06:40:43.295Z,1016.40
2023-04-21T06:41:43.541Z,1016.35
2023-04-21T06:42:43.800Z,1016.34
2023-04-21T06:43:44.031Z,1016.37
2023-04-21T06:44:44.274Z,1016.35
2023-04-21T06:45:44.603Z,1016.36
2023-04-21T06:46:44.912Z,1016.35
2023-04-21T06:47:45.205Z,1016.37
2023-04-21T06:48:45.458Z,1016.38
2023-04-21T06:49:45.671Z,1016.36
2023-04-21T06:50:45.886Z,1016.49
2023-04-21T06:51:46.243Z,1016.42
2023-04-21T06:52:46.618Z,1016.49
2023-04-21T06:53:46.903Z,1016.46
2023-04-21T06:54:47.116Z,1016.37
2023-04-21T06:55:47.356Z,1016.44
2023-04-21T06:56:47.599Z,1016.46
2023-04-21T06:57:47.840Z,1016.39
2023-04-21T06:58:48.119Z,1016.47
2023-04-21T06:59:48.338Z,1016.39
2023-04-21T07:00:48.586Z,1016.38
2023-04-21T07:01:48.864Z,1016.36
2023-04-21T07:02:49.251Z,1016.38
2023-04-21T07:03:49.471Z,1016.35
2023-04-21T07:04:49.760Z,1016.40
2023-04-21T07:05:50.017Z,1016.38
2023-04-21T07:06:50.254Z,1016.39
2023-04-21T07:07:50.510Z,1016.42
2023-04-21T07:08:50.736Z,1016.38
2023-04-21T07:09:51.076Z,1016.40
2023-04-21T07:10:51.478Z,1016.43
2023-04-21T07:11:51.657Z,1016.40
2023-04-21T07:12:52.033Z,1016.40
2023-04-21T07:13:52.250Z,1016.37
2023-04-21T07:14:52.490Z,1016.36
2023-04-21T07:15:53.690Z,1016.38
2023-04-21T07:16:53.071Z,1016.40
2023-04-21T07:17:53.348Z,1016.34
2023-04-21T07:18:55.112Z,1016.37
2023-04-21T07:19:53.892Z,1016.33
2023-04-21T07:20:54.136Z,1016.37
2023-04-21T07:21:54.332Z,1016.39
2023-04-21T07:22:54.705Z,1016.40
2023-04-21T07:23:54.953Z,1016.41
2023-04-21T07:24:55.162Z,1016.40
2023-04-21T07:25:55.530Z,1016.37
2023-04-21T07:26:55.726Z,1016.36
2023-04-21T07:27:56.107Z,1016.33
2023-04-21T07:28:56.369Z,1016.38
2023-04-21T07:29:56.628Z,1016.39
2023-04-21T07:30:56.908Z,1016.37
2023-04-21T07:31:57.229Z,1016.33
2023-04-21T07:32:57.476Z,1016.38
2023-04-21T07:33:57.695Z,1016.41
2023-04-21T07:34:58.083Z,1016.31
2023-04-21T07:35:58.209Z,1016.35
2023-04-21T07:36:58.422Z,1016.29
2023-04-21T07:37:58.669Z,1016.41
2023-04-21T07:38:58.948Z,1016.35
2023-04-21T07:39:59.192Z,1016.30
2023-04-21T07:40:59.418Z,1016.39
2023-04-21T07:41:59.657Z,1016.41
2023-04-21T07:42:59.930Z,1016.37
2023-04-21T07:44:00.165Z,1016.30
2023-04-21T07:45:00.420Z,1016.35
2023-04-21T07:46:00.739Z,1016.32
2023-04-21T07:47:01.000Z,1016.34
2023-04-21T07:48:01.352Z,1016.32
2023-04-21T07:49:03.785Z,1016.28
2023-04-21T07:50:01.783Z,1016.29
2023-04-21T07:51:02.036Z,1016.31
2023-04-21T07:52:02.255Z,1016.26
2023-04-21T07:53:02.481Z,1016.27
2023-04-21T07:54:02.748Z,1016.30
2023-04-21T07:55:03.038Z,1016.32
2023-04-21T07:56:03.243Z,1016.30
2023-04-21T07:57:03.562Z,1016.28
2023-04-21T07:58:03.781Z,1016.32
2023-04-21T07:59:03.984Z,1016.31
2023-04-21T08:00:04.231Z,1016.30
2023-04-21T08:01:04.575Z,1016.34
2023-04-21T08:02:05.185Z,1016.27
2023-04-21T08:03:05.439Z,1016.30
2023-04-21T08:04:07.078Z,1016.24
2023-04-21T08:05:05.848Z,1016.26
2023-04-21T08:06:06.095Z,1016.27
2023-04-21T08:07:06.342Z,1016.27
2023-04-21T08:08:06.766Z,1016.29
2023-04-21T08:09:06.814Z,1016.23
2023-04-21T08:10:08.547Z,1016.24
2023-04-21T08:11:09.120Z,1016.25
2023-04-21T08:12:15.112Z,1016.26
2023-04-21T08:13:07.956Z,1016.18
2023-04-21T08:14:08.075Z,1016.27
2023-04-21T08:15:08.487Z,1016.18
2023-04-21T08:16:08.708Z,1016.15
2023-04-21T08:17:08.978Z,1016.14
2023-04-21T08:18:09.427Z,1016.15
2023-04-21T08:19:09.492Z,1016.15
2023-04-21T08:20:09.794Z,1016.25
2023-04-21T08:21:10.052Z,1016.10
2023-04-21T08:22:11.733Z,1016.03
2023-04-21T08:23:10.562Z,1016.05
2023-04-21T08:24:10.842Z,1016.05
2023-04-21T08:25:11.059Z,1016.07
2023-04-21T08:26:12.133Z,1016.01
2023-04-21T08:27:12.393Z,1015.99
2023-04-21T08:28:11.979Z,1016.08
2023-04-21T08:29:12.250Z,1016.03
2023-04-21T08:30:12.553Z,1016.02
2023-04-21T08:31:13.510Z,1016.06
2023-04-21T08:32:13.203Z,1016.00
2023-04-21T08:33:13.290Z,1016.05
2023-04-21T08:34:13.589Z,1016.07
2023-04-21T08:35:14.615Z,1016.03
2023-04-21T08:36:26.006Z,1016.01
2023-04-21T08:37:16.352Z,1016.01
2023-04-21T08:38:14.693Z,1016.08
2023-04-21T08:39:14.984Z,1016.00
2023-04-21T08:40:15.197Z,1015.93
2023-04-21T08:41:15.440Z,1016.04
2023-04-21T08:42:15.681Z,1016.03
2023-04-21T08:43:15.923Z,1015.94
2023-04-21T08:44:17.231Z,1016.01
2023-04-21T08:45:16.418Z,1016.00
2023-04-21T08:46:18.190Z,1015.94
2023-04-21T08:47:16.950Z,1015.89
2023-04-21T08:48:17.914Z,1016.00
2023-04-21T08:49:17.575Z,1015.99
2023-04-21T08:50:17.723Z,1015.91
2023-04-21T08:51:18.020Z,1015.90
2023-04-21T08:52:18.259Z,1015.99
2023-04-21T08:53:18.531Z,1015.91
2023-04-21T08:54:18.779Z,1015.90
2023-04-21T08:55:19.025Z,1015.92
2023-04-21T08:56:19.280Z,1015.91
2023-04-21T08:57:19.517Z,1015.86
2023-04-21T08:58:19.787Z,1015.85
2023-04-21T08:59:20.217Z,1015.90
2023-04-21T09:00:20.383Z,1015.90
2023-04-21T09:01:20.797Z,1015.88
2023-04-21T09:02:21.029Z,1015.91
2023-04-21T09:03:26.078Z,1015.85
2023-04-21T09:04:22.655Z,1015.92
2023-04-21T09:05:22.116Z,1015.92
2023-04-21T09:06:22.302Z,1015.89
2023-04-21T09:07:22.306Z,1015.88
2023-04-21T09:08:22.552Z,1015.85
2023-04-21T09:09:22.813Z,1015.85
2023-04-21T09:10:23.058Z,1015.87
2023-04-21T09:11:24.056Z,1015.94
2023-04-21T09:12:23.573Z,1015.86
2023-04-21T09:13:23.831Z,1015.87
2023-04-21T09:14:24.121Z,1015.86
2023-04-21T09:15:24.336Z,1015.88
2023-04-21T09:16:24.646Z,1015.77
2023-04-21T09:17:24.874Z,1015.73
2023-04-21T09:18:25.102Z,1015.77
2023-04-21T09:19:25.367Z,1015.88
2023-04-21T09:20:25.642Z,1015.78
2023-04-21T09:21:25.920Z,1015.78
2023-04-21T09:22:26.147Z,1015.87
2023-04-21T09:23:26.407Z,1015.81
2023-04-21T09:24:26.685Z,1015.80
2023-04-21T09:25:26.933Z,1015.77
2023-04-21T09:26:27.321Z,1015.80
2023-04-21T09:27:27.566Z,1015.81
2023-04-21T09:28:27.825Z,1015.77
2023-04-21T09:29:28.069Z,1015.82
2023-04-21T09:30:28.424Z,1015.78
2023-04-21T09:31:28.763Z,1015.77
2023-04-21T09:32:28.963Z,1015.74
2023-04-21T09:33:34.311Z,1015.65
2023-04-21T09:34:30.481Z,1015.76
2023-04-21T09:35:30.527Z,1015.72
2023-04-21T09:36:30.373Z,1015.69
2023-04-21T09:37:30.458Z,1015.69
2023-04-21T09:38:30.726Z,1015.74
2023-04-21T09:39:45.698Z,1015.74
2023-04-21T09:40:32.195Z,1015.69
2023-04-21T09:41:31.506Z,1015.71
2023-04-21T09:42:31.768Z,1015.65
2023-04-21T09:43:32.046Z,1015.74
2023-04-21T09:44:39.775Z,1015.75
2023-04-21T09:45:40.228Z,1015.67
2023-04-21T09:46:33.799Z,1015.66
2023-04-21T09:47:33.838Z,1015.63
2023-04-21T09:48:33.372Z,1015.67
2023-04-21T09:49:33.604Z,1015.63
2023-04-21T09:51:15.278Z,1015.70
2023-04-21T09:52:34.425Z,1015.64
2023-04-21T09:53:34.722Z,1015.69
2023-04-21T09:54:35.095Z,1015.61
2023-04-21T09:55:35.292Z,1015.53
2023-04-21T09:56:35.540Z,1015.60
2023-04-21T09:57:35.802Z,1015.58
2023-04-21T09:58:36.079Z,1015.54
2023-04-21T09:59:36.292Z,1015.61
2023-04-21T10:00:36.522Z,1015.60
2023-04-21T10:01:36.782Z,1015.54
2023-04-21T10:02:37.194Z,1015.68
2023-04-21T10:03:37.413Z,1015.61
2023-04-21T10:04:38.007Z,1015.56
2023-04-21T10:05:40.088Z,1015.55
2023-04-21T10:06:38.895Z,1015.55
2023-04-21T10:07:38.491Z,1015.52
2023-04-21T10:08:38.768Z,1015.53
2023-04-21T10:09:38.991Z,1015.52
2023-04-21T10:10:39.249Z,1015.54
2023-04-21T10:11:39.467Z,1015.50
2023-04-21T10:12:39.733Z,1015.55
2023-04-21T10:13:40.062Z,1015.51
2023-04-21T10:14:40.303Z,1015.43
2023-04-21T10:15:40.619Z,1015.42
2023-04-21T10:16:40.982Z,1015.44
2023-04-21T10:17:41.125Z,1015.44
2023-04-21T10:18:41.386Z,1015.39
2023-04-21T10:19:41.641Z,1015.34
2023-04-21T10:20:41.877Z,1015.33
2023-04-21T10:21:42.102Z,1015.36
2023-04-21T10:22:42.353Z,1015.49
2023-04-21T10:23:42.657Z,1015.28
2023-04-21T10:24:42.908Z,1015.35
2023-04-21T10:25:43.163Z,1015.41
2023-04-21T10:26:43.391Z,1015.32
2023-04-21T10:27:43.709Z,1015.35
2023-04-21T10:28:43.949Z,1015.35
2023-04-21T10:29:56.076Z,1015.50
2023-04-21T10:30:45.455Z,1015.23
2023-04-21T10:31:44.745Z,1015.26
2023-04-21T10:32:44.997Z,1015.28
2023-04-21T10:33:45.249Z,1015.27
2023-04-21T10:34:45.486Z,1015.21
2023-04-21T10:35:45.717Z,1015.28
2023-04-21T10:36:45.986Z,1015.26
2023-04-21T10:37:46.170Z,1015.21
2023-04-21T10:38:46.423Z,1015.26
2023-04-21T10:39:46.652Z,1015.11
2023-04-21T10:40:46.908Z,1015.20
2023-04-21T10:41:47.212Z,1015.18
2023-04-21T10:42:47.449Z,1015.22
2023-04-21T10:43:49.580Z,1015.17
2023-04-21T10:44:48.034Z,1015.20
2023-04-21T10:45:48.271Z,1015.19
2023-04-21T10:46:48.559Z,1015.19
2023-04-21T10:47:49.112Z,1015.17
2023-04-21T10:48:49.100Z,1015.23
2023-04-21T10:49:49.348Z,1015.21
2023-04-21T10:50:49.597Z,1015.23
2023-04-21T10:51:49.864Z,1015.23
2023-04-21T10:52:50.125Z,1015.15
2023-04-21T10:53:50.396Z,1015.14
2023-04-21T10:54:50.641Z,1015.19
2023-04-21T10:55:50.893Z,1015.09
2023-04-21T10:56:51.108Z,1015.14
2023-04-21T10:57:51.471Z,1015.10
2023-04-21T10:58:51.715Z,1015.17
2023-04-21T10:59:51.964Z,1015.22
2023-04-21T11:00:52.978Z,1015.18
2023-04-21T11:01:52.585Z,1015.22
2023-04-21T11:02:52.927Z,1015.13
2023-04-21T11:03:53.133Z,1015.06
2023-04-21T11:04:53.739Z,1015.15
2023-04-21T11:05:53.689Z,1015.13
2023-04-21T11:06:54.687Z,1015.08
2023-04-21T11:07:54.250Z,1015.09
2023-04-21T11:08:54.518Z,1015.12
2023-04-21T11:09:54.763Z,1015.01
2023-04-21T11:10:55.067Z,1015.00
2023-04-21T11:11:55.294Z,1015.11
2023-04-21T11:12:55.498Z,1015.05
2023-04-21T11:13:55.761Z,1015.07
2023-04-21T11:14:56.076Z,1015.08
2023-04-21T11:15:56.354Z,1015.01
2023-04-21T11:16:56.631Z,1015.00
2023-04-21T11:17:56.911Z,1014.99
2023-04-21T11:18:57.212Z,1014.86
2023-04-21T11:19:57.439Z,1014.86
2023-04-21T11:20:57.669Z,1014.84
2023-04-21T11:21:57.925Z,1014.92
2023-04-21T11:22:58.148Z,1014.81
2023-04-21T11:23:58.416Z,1014.81
2023-04-21T11:24:58.676Z,1014.73
2023-04-21T11:25:58.936Z,1014.83
2023-04-21T11:26:59.177Z,1015.07
2023-04-21T11:27:59.435Z,1014.73
2023-04-21T11:28:59.671Z,1014.78
2023-04-21T11:29:59.903Z,1014.84
2023-04-21T11:31:00.230Z,1014.76
2023-04-21T11:32:00.432Z,1014.72
2023-04-21T11:33:00.700Z,1014.84
2023-04-21T11:34:00.975Z,1014.80
2023-04-21T11:35:01.207Z,1014.73
2023-04-21T11:36:01.464Z,1014.67
2023-04-21T11:37:01.720Z,1014.79
2023-04-21T11:38:01.967Z,1014.67
2023-04-21T11:39:02.207Z,1014.74
2023-04-21T11:40:02.450Z,1014.75
2023-04-21T11:41:02.739Z,1014.63
2023-04-21T11:42:02.953Z,1014.81
2023-04-21T11:43:03.236Z,1014.54
2023-04-21T11:44:03.464Z,1014.73
2023-04-21T11:45:03.701Z,1014.62
2023-04-21T11:46:03.972Z,1014.59
2023-04-21T11:47:04.187Z,1014.65
2023-04-21T11:48:04.467Z,1014.61
2023-04-21T11:49:04.650Z,1014.60
2023-04-21T11:50:04.983Z,1014.58
2023-04-21T11:51:05.190Z,1014.67
2023-04-21T11:52:05.454Z,1014.57
2023-04-21T11:53:05.694Z,1014.61
2023-04-21T11:54:05.961Z,1014.53
2023-04-21T11:55:06.205Z,1014.52
2023-04-21T11:56:06.448Z,1014.52
2023-04-21T11:57:06.698Z,1014.55
2023-04-21T11:58:06.939Z,1014.52
2023-04-21T11:59:07.170Z,1014.45
2023-04-21T12:00:07.437Z,1014.49
2023-04-21T12:01:07.673Z,1014.52
2023-04-21T12:02:07.946Z,1014.46
2023-04-21T12:03:08.524Z,1014.51
2023-04-21T12:04:08.616Z,1014.41
2023-04-21T12:05:09.101Z,1014.45
2023-04-21T12:06:09.110Z,1014.45
2023-04-21T12:07:09.319Z,1014.48
2023-04-21T12:08:09.583Z,1014.49
2023-04-21T12:09:09.812Z,1014.42
2023-04-21T12:10:10.133Z,1014.49
2023-04-21T12:11:10.365Z,1014.36